Bayard, IA (50029)

9:40 PM CDT on July 28, 2014 (GMT -0500)
Herbers Seed (KIACOONR2) Elev 1138 ft | 41.87 °N, 94.69 °W | Change Station

Current weather conditions updated 3 minutes ago

Clear
Clear
63.6 °F
Feels Like 63.6 °F
N
0.0
Wind Variable Wind from East

Tomorrow is forecast to be Warmer than today.

Today
High -- | Low -- °F
--% Chance of Precip.
Yesterday
High -- | Low -- °F
Precip. -- in
6:08 AM 8:40 PM
Waxing Crescent, 4% visible
Pressure 30.18 in
Visibility 10.0 miles
Clouds Clear
Dew Point 60 °F
Humidity 87%
Rainfall 0.00 in
Snow Depth Not available.
UV 0 out of 12
Pollen 6.50 out of 12
Air Quality Not available.
Flu Activity Not available.
METAR KCIN 290235Z AUTO 29003KT 10SM CLR 16/15 A3018 RMK AO2

More Conditions Fewer Conditions

Pressure 30.18 in
Visibility 10.0 miles
Clouds Clear
Dew Point 60 °F
Humidity 87%
Rainfall 0.00 in
Snow Depth Not available.
UV 0 out of 12
Pollen 6.50 out of 12
Air Quality Not available.
Flu Activity Not available.
METAR KCIN 290235Z AUTO 29003KT 10SM CLR 16/15 A3018 RMK AO2

More Conditions Fewer Conditions

10-Day Weather Forecast

Almanac

Astronomy

Jul. 28, 2014 Rise Set
Actual Time 6:08 AM CDT 8:40 PM CDT
Civil Twilight 5:36 AM CDT 9:12 PM CDT
Nautical Twilight 4:56 AM CDT 9:52 PM CDT
Astronomical Twilight 4:11 AM CDT 10:36 PM CDT
Moon 7:52 AM CDT (7/28) 9:19 PM CDT (7/28)
Length of Visible Light 15h 36m
Length of Day
14h 32m
Tomorrow will be 2m 2s shorter.
Waxing Crescent, 4% of the Moon is Illuminated
Today
Waxing Crescent
Aug 3
First Quarter
Aug 10
Full
Aug 17
Last Quarter
Aug 25
New

Today's Extremes

State Highs State Lows

Community

WunderPhotos

Upload Photos

1,738,587 photos uploaded!

Nearby

Snow Depth

Station Depth Elevation
No new snow has been reported.

Earthquake Activity

City Distance Mag. Time & Date
No recent earthquake activity has been reported nearby.
Minimum magnitude displayed is 2.5.

Coastal Water Temperatures

Place Temperature
No Stations Reporting

Nearby Weather Stations

Station Location Temp. Heat Index Dew Point Humidity Wind Precip. Elev Updated Type
Herbers Seed, Coon Rapids, IA 63.6 °F - 60 °F 87% East  at  0.0 mph - / hr 1138 ft 9:37 PM CDT Normal
TempletonFF, Templeton, IA 63.8 °F - 60 °F 87% NNE  at  1.0 mph 0.00 in / hr 1385 ft 9:28 PM CDT Normal
Herbers Seed, Audubon, IA 64.9 °F - 61 °F 86% NW  at  0.0 mph - / hr 1385 ft 9:39 PM CDT Normal
MesoWest CAROL1 , Carroll, IA 73 °F 71 °F - - North  at  - 0.00 in / hr 1249 ft 8:15 PM CDT MADIS
Chambers House, Audubon, IA 64.6 °F - 61 °F 88% North  at  0.0 mph 0.00 in / hr 1440 ft 9:40 PM CDT Normal
Natural Fertilizer Services - Eagle Acre, Audubon, IA 65.8 °F - 62 °F 86% NE  at  2.0 mph 0.00 in / hr 1424 ft 9:26 PM CDT Normal

Show More Stations Show Fewer Stations